Time;durP1;ratioP1;P1;durP2;ratioP2;P2;SDS_P1;SDS_P2;PMS_P1;PMS_P2;Temp;Humidity;BMP_temperature;BMP_pressure;BME280_temperature;BME280_humidity;BME280_pressure;Samples;Min_cycle;Max_cycle;Signal;HPM_P1;HPM_P2
2023/08/23 00:03:52;;;;;;;2.65;1.83;;;14.30;99.90;;;;;;7301442;32;20163;-56
2023/08/23 00:07:54;;;;;;;6.72;2.35;;;14.30;99.90;;;;;;7285451;32;20246;-56
2023/08/23 00:11:56;;;;;;;6.30;2.45;;;14.30;99.90;;;;;;7287317;32;20124;-55
2023/08/23 00:15:58;;;;;;;7.68;2.20;;;14.20;99.90;;;;;;7285183;32;20177;-56
2023/08/23 00:20:03;;;;;;;7.10;2.30;;;14.20;99.90;;;;;;7295129;32;20131;-56
2023/08/23 00:24:05;;;;;;;3.87;1.92;;;14.20;99.90;;;;;;7293621;32;20180;-55
2023/08/23 00:28:07;;;;;;;4.18;1.95;;;14.10;99.90;;;;;;7290337;32;20519;-56
2023/08/23 00:32:15;;;;;;;7.97;2.03;;;14.10;99.90;;;;;;7295118;32;20120;-56
2023/08/23 00:36:18;;;;;;;3.70;2.30;;;14.10;99.90;;;;;;7245877;32;20247;-56
2023/08/23 00:40:20;;;;;;;7.05;2.22;;;14.00;99.90;;;;;;7294819;32;20211;-56
2023/08/23 00:44:22;;;;;;;5.47;2.35;;;13.90;99.90;;;;;;7290465;32;20115;-56
2023/08/23 00:48:24;;;;;;;5.25;2.10;;;14.00;99.90;;;;;;7288190;32;20112;-56
2023/08/23 00:52:27;;;;;;;5.55;2.17;;;14.00;99.90;;;;;;7292999;32;20112;-56
2023/08/23 00:56:44;;;;;;;5.35;2.05;;;14.00;99.90;;;;;;7287704;32;20223;-55
2023/08/23 01:00:47;;;;;;;3.28;1.95;;;13.90;99.90;;;;;;7295907;32;20132;-55
2023/08/23 01:04:51;;;;;;;5.62;2.35;;;13.90;99.90;;;;;;7292818;32;20227;-56
2023/08/23 01:09:05;;;;;;;4.10;2.20;;;13.90;99.90;;;;;;7293618;32;20279;-55
2023/08/23 01:13:40;;;;;;;5.60;2.42;;;13.90;99.90;;;;;;7295764;32;20172;-57
2023/08/23 01:17:43;;;;;;;5.45;2.30;;;13.80;99.90;;;;;;7302049;32;20167;-55
2023/08/23 01:21:47;;;;;;;5.97;2.15;;;13.90;99.90;;;;;;7296617;32;20607;-56
2023/08/23 01:25:50;;;;;;;5.57;1.90;;;13.70;99.90;;;;;;7298409;32;20341;-56
2023/08/23 01:29:52;;;;;;;7.35;1.85;;;13.60;99.90;;;;;;7293443;32;20131;-56
2023/08/23 01:34:10;;;;;;;4.53;2.00;;;13.60;99.90;;;;;;7243927;32;20116;-56
2023/08/23 01:38:16;;;;;;;6.82;2.28;;;13.60;99.90;;;;;;7295206;32;20117;-55
2023/08/23 01:42:18;;;;;;;5.12;2.10;;;13.60;99.90;;;;;;7295950;32;20277;-56
2023/08/23 01:46:20;;;;;;;5.00;2.00;;;13.60;99.90;;;;;;7290370;32;21306;-55
2023/08/23 01:50:22;;;;;;;6.72;2.00;;;13.50;99.90;;;;;;7298777;32;20180;-56
2023/08/23 01:54:23;;;;;;;3.50;2.00;;;13.50;99.90;;;;;;7288390;32;20247;-56
2023/08/23 01:58:25;;;;;;;4.82;2.42;;;13.60;99.90;;;;;;7295862;32;20164;-55
2023/08/23 02:02:27;;;;;;;8.10;2.33;;;13.60;99.90;;;;;;7292282;32;20652;-55
2023/08/23 02:06:29;;;;;;;5.80;2.28;;;13.50;99.90;;;;;;7299070;32;20144;-56
2023/08/23 02:10:31;;;;;;;4.32;1.90;;;13.40;99.90;;;;;;7302608;32;20135;-56
2023/08/23 02:14:32;;;;;;;7.50;3.58;;;13.40;99.90;;;;;;7296054;32;20255;-56
2023/08/23 02:18:34;;;;;;;4.35;1.90;;;13.30;99.90;;;;;;7298953;32;20182;-55
2023/08/23 02:22:36;;;;;;;9.48;2.05;;;13.20;99.90;;;;;;7290707;32;20124;-56
2023/08/23 02:26:37;;;;;;;5.45;2.17;;;13.20;99.90;;;;;;7292837;32;20214;-58
2023/08/23 02:30:39;;;;;;;6.18;2.05;;;13.30;99.90;;;;;;7292960;32;20636;-56
2023/08/23 02:34:41;;;;;;;6.78;1.98;;;13.20;99.90;;;;;;7245266;32;20123;-56
2023/08/23 02:38:43;;;;;;;4.80;1.95;;;13.20;99.90;;;;;;7286947;32;20270;-56
2023/08/23 02:42:44;;;;;;;4.95;2.40;;;13.20;99.90;;;;;;7286350;32;20428;-56
2023/08/23 02:46:46;;;;;;;6.15;2.65;;;13.20;99.90;;;;;;7293384;32;20615;-56
2023/08/23 02:50:48;;;;;;;3.90;2.10;;;13.20;99.90;;;;;;7287440;32;20257;-57
2023/08/23 02:54:50;;;;;;;3.67;2.08;;;13.20;99.90;;;;;;7292506;32;20177;-56
2023/08/23 02:58:51;;;;;;;10.68;3.55;;;13.10;99.90;;;;;;7287777;32;20526;-56
2023/08/23 03:02:53;;;;;;;4.18;2.40;;;13.00;99.90;;;;;;7283092;32;20109;-55
2023/08/23 03:06:55;;;;;;;8.02;2.45;;;13.00;99.90;;;;;;7290270;32;20237;-56
2023/08/23 03:11:05;;;;;;;4.57;2.30;;;13.10;99.90;;;;;;7287433;32;20195;-56
2023/08/23 03:15:07;;;;;;;5.45;2.47;;;13.10;99.90;;;;;;7296026;32;20172;-56
2023/08/23 03:19:09;;;;;;;7.60;2.65;;;13.10;99.90;;;;;;7292271;32;20143;-55
2023/08/23 03:23:11;;;;;;;4.15;2.42;;;13.00;99.90;;;;;;7286860;32;20108;-56
2023/08/23 03:27:13;;;;;;;11.70;2.67;;;13.00;99.90;;;;;;7288964;32;20534;-55
2023/08/23 03:31:14;;;;;;;8.45;2.60;;;13.00;99.90;;;;;;7299546;32;21027;-56
2023/08/23 03:35:16;;;;;;;10.38;2.80;;;13.00;99.90;;;;;;7239238;32;20638;-55
2023/08/23 03:39:18;;;;;;;10.95;2.53;;;13.00;99.90;;;;;;7294344;32;20183;-55
2023/08/23 03:43:21;;;;;;;5.65;2.90;;;12.90;99.90;;;;;;7292631;32;20162;-55
2023/08/23 03:47:24;;;;;;;8.63;2.85;;;12.80;99.90;;;;;;7290968;32;20108;-55
2023/08/23 03:51:26;;;;;;;8.93;2.92;;;12.90;99.90;;;;;;7294166;32;20517;-55
2023/08/23 03:55:28;;;;;;;6.28;2.42;;;13.00;99.90;;;;;;7292261;32;20234;-56
2023/08/23 03:59:30;;;;;;;6.97;3.03;;;12.90;99.90;;;;;;7293401;32;20423;-55
2023/08/23 04:03:33;;;;;;;4.40;2.42;;;12.90;99.90;;;;;;7292786;32;20149;-54
2023/08/23 04:07:35;;;;;;;8.52;3.33;;;12.90;99.90;;;;;;7293767;32;20243;-54
2023/08/23 04:11:37;;;;;;;4.57;2.87;;;12.90;99.90;;;;;;7290447;32;20136;-55
2023/08/23 04:15:41;;;;;;;14.15;2.90;;;12.90;99.90;;;;;;7290023;32;20127;-56
2023/08/23 04:19:43;;;;;;;6.30;2.60;;;12.80;99.90;;;;;;7296292;32;20123;-55
2023/08/23 04:23:45;;;;;;;8.07;2.92;;;12.70;99.90;;;;;;7295369;32;20104;-55
2023/08/23 04:27:46;;;;;;;6.60;2.72;;;12.70;99.90;;;;;;7295489;32;20565;-54
2023/08/23 04:31:48;;;;;;;8.55;4.05;;;12.80;99.90;;;;;;7290133;32;20648;-55
2023/08/23 04:35:50;;;;;;;7.18;3.28;;;12.80;99.90;;;;;;7288780;32;20203;-54
2023/08/23 04:39:52;;;;;;;7.30;2.92;;;12.70;99.90;;;;;;7298982;32;20203;-54
2023/08/23 04:43:54;;;;;;;6.28;3.20;;;12.70;99.90;;;;;;7293068;32;20199;-55
2023/08/23 04:47:55;;;;;;;5.93;3.50;;;12.70;99.90;;;;;;7290969;32;20180;-56
2023/08/23 04:51:57;;;;;;;8.48;3.45;;;12.70;99.90;;;;;;7283162;32;20487;-56
2023/08/23 04:55:59;;;;;;;4.93;3.00;;;12.70;99.90;;;;;;7293492;32;20158;-56
2023/08/23 05:00:01;;;;;;;10.88;3.17;;;12.60;99.90;;;;;;7284461;32;20169;-56
2023/08/23 05:04:04;;;;;;;10.20;3.70;;;12.60;99.90;;;;;;7291297;32;20167;-56
2023/08/23 05:08:06;;;;;;;8.05;3.30;;;12.70;99.90;;;;;;7290493;32;20108;-56
2023/08/23 05:12:08;;;;;;;8.77;3.70;;;12.70;99.90;;;;;;7292820;32;20289;-57
2023/08/23 05:16:12;;;;;;;7.30;3.12;;;12.80;99.90;;;;;;7296207;32;20162;-56
2023/08/23 05:20:14;;;;;;;8.48;4.10;;;12.90;99.90;;;;;;7292375;32;20134;-56
2023/08/23 05:24:16;;;;;;;8.35;3.83;;;13.00;99.90;;;;;;7292804;32;20151;-56
2023/08/23 05:28:22;;;;;;;7.18;3.53;;;13.10;99.90;;;;;;7288087;32;20262;-57
2023/08/23 05:32:24;;;;;;;8.32;3.83;;;13.10;99.90;;;;;;7291415;32;20112;-56
2023/08/23 05:36:25;;;;;;;10.32;4.53;;;13.20;99.90;;;;;;7291709;32;20112;-56
2023/08/23 05:40:27;;;;;;;11.73;4.25;;;13.20;99.90;;;;;;7293367;32;20402;-56
2023/08/23 05:44:29;;;;;;;8.60;3.78;;;13.30;99.90;;;;;;7295796;32;20122;-56
2023/08/23 05:48:34;;;;;;;9.02;4.43;;;13.40;99.90;;;;;;7294858;32;20122;-56
2023/08/23 05:52:36;;;;;;;10.88;3.90;;;13.60;99.90;;;;;;7302408;32;20578;-56
2023/08/23 05:56:38;;;;;;;7.57;4.45;;;13.70;99.90;;;;;;7302706;32;20108;-57
2023/08/23 06:00:40;;;;;;;10.55;4.25;;;13.80;99.90;;;;;;7300135;32;20104;-56
2023/08/23 06:04:42;;;;;;;10.57;6.32;;;13.90;99.90;;;;;;7304313;32;20109;-57
2023/08/23 06:08:44;;;;;;;9.60;6.40;;;14.00;99.90;;;;;;7295724;32;20874;-56
2023/08/23 06:12:45;;;;;;;9.57;4.57;;;14.10;99.90;;;;;;7264835;32;20104;-56
2023/08/23 06:16:47;;;;;;;7.85;4.22;;;14.30;99.90;;;;;;7293478;32;20135;-55
2023/08/23 06:20:49;;;;;;;7.90;3.47;;;14.40;99.90;;;;;;7294361;32;20118;-57
2023/08/23 06:24:51;;;;;;;10.73;3.87;;;14.60;99.90;;;;;;7298183;32;20530;-55
2023/08/23 06:28:53;;;;;;;8.90;4.25;;;14.70;99.90;;;;;;7292982;32;21060;-55
2023/08/23 06:32:55;;;;;;;7.00;5.03;;;15.10;99.90;;;;;;7274377;32;20135;-56
2023/08/23 06:36:57;;;;;;;14.45;11.68;;;15.30;99.90;;;;;;7291898;32;20174;-55
2023/08/23 06:40:59;;;;;;;21.17;12.52;;;15.60;99.90;;;;;;7277797;32;20136;-55
2023/08/23 06:45:02;;;;;;;18.30;13.65;;;15.90;99.90;;;;;;7291773;32;20174;-55
2023/08/23 06:49:04;;;;;;;16.98;12.65;;;16.10;99.90;;;;;;7295461;32;20134;-55
2023/08/23 06:53:06;;;;;;;17.17;11.95;;;16.30;99.90;;;;;;7289670;32;20578;-54
2023/08/23 06:57:07;;;;;;;16.95;9.93;;;16.60;99.90;;;;;;7297451;32;20225;-55
2023/08/23 07:01:14;;;;;;;17.17;11.75;;;16.60;99.90;;;;;;7290666;32;20198;-55
2023/08/23 07:05:16;;;;;;;19.45;14.27;;;16.80;99.90;;;;;;7281095;32;20151;-55
2023/08/23 07:09:17;;;;;;;17.40;10.82;;;16.80;99.90;;;;;;7294391;32;20556;-55
2023/08/23 07:13:19;;;;;;;13.55;10.00;;;17.00;99.90;;;;;;7295110;32;20108;-58
2023/08/23 07:17:21;;;;;;;16.35;10.45;;;17.20;99.90;;;;;;7286455;32;20258;-55
2023/08/23 07:21:22;;;;;;;17.95;12.48;;;17.40;99.90;;;;;;7295390;32;20112;-55
2023/08/23 07:25:24;;;;;;;15.88;11.70;;;17.60;99.90;;;;;;7288120;32;20096;-57
2023/08/23 07:29:26;;;;;;;14.65;9.95;;;17.70;99.90;;;;;;7285084;32;20249;-57
2023/08/23 07:33:28;;;;;;;17.87;14.02;;;17.80;99.90;;;;;;7280853;32;20249;-56
2023/08/23 07:37:30;;;;;;;18.48;12.65;;;18.00;99.90;;;;;;7290331;32;20313;-56
2023/08/23 07:41:32;;;;;;;12.60;10.38;;;18.10;99.90;;;;;;7292824;32;20112;-55
2023/08/23 07:45:33;;;;;;;12.20;9.57;;;18.20;99.90;;;;;;7282508;32;20128;-56
2023/08/23 07:49:35;;;;;;;13.68;10.38;;;18.30;99.90;;;;;;7281528;32;20332;-56
2023/08/23 07:53:37;;;;;;;14.75;9.20;;;18.50;99.90;;;;;;7284098;32;20315;-57
2023/08/23 07:57:39;;;;;;;15.90;8.90;;;18.60;99.90;;;;;;7290486;32;20577;-56
2023/08/23 08:01:41;;;;;;;12.52;8.23;;;19.00;99.90;;;;;;7288963;32;20131;-57
2023/08/23 08:05:42;;;;;;;13.77;10.48;;;19.10;99.90;;;;;;7291680;32;20266;-56
2023/08/23 08:09:45;;;;;;;12.27;8.63;;;19.30;99.90;;;;;;7294686;32;20131;-56
2023/08/23 08:13:47;;;;;;;11.88;6.50;;;19.40;99.90;;;;;;7292685;32;20304;-56
2023/08/23 08:17:51;;;;;;;13.57;7.57;;;19.40;99.90;;;;;;7287851;32;20112;-56
2023/08/23 08:21:55;;;;;;;17.10;8.25;;;19.50;99.90;;;;;;7292063;32;20146;-56
2023/08/23 08:25:57;;;;;;;19.92;8.35;;;19.70;99.90;;;;;;7226829;32;20134;-56
2023/08/23 08:29:59;;;;;;;14.07;7.47;;;19.90;99.90;;;;;;7224832;32;20111;-56
2023/08/23 08:34:01;;;;;;;14.95;8.02;;;20.10;99.90;;;;;;7236992;32;20223;-57
2023/08/23 08:38:03;;;;;;;13.10;7.50;;;20.40;99.90;;;;;;7256626;32;20142;-57
2023/08/23 08:42:05;;;;;;;10.85;7.22;;;20.90;99.90;;;;;;7292016;32;20146;-57
2023/08/23 08:46:07;;;;;;;8.07;5.40;;;21.80;99.90;;;;;;7256491;32;20107;-56
2023/08/23 08:50:09;;;;;;;9.77;5.15;;;23.00;99.90;;;;;;7293840;32;21008;-56
2023/08/23 08:54:11;;;;;;;7.97;4.50;;;23.30;99.90;;;;;;7291540;32;20712;-57
2023/08/23 08:58:19;;;;;;;9.25;4.47;;;23.80;99.90;;;;;;7289041;32;20375;-58
2023/08/23 09:02:23;;;;;;;10.77;4.32;;;24.10;99.90;;;;;;7290838;32;20144;-57
2023/08/23 09:06:27;;;;;;;6.30;2.70;;;24.10;99.90;;;;;;7287737;32;20100;-57
2023/08/23 09:10:29;;;;;;;5.45;2.15;;;25.40;99.90;;;;;;7280048;32;20221;-57
2023/08/23 09:14:31;;;;;;;4.15;1.60;;;26.70;99.90;;;;;;7243861;32;20217;-58
2023/08/23 09:18:33;;;;;;;7.95;2.12;;;28.20;99.90;;;;;;7246630;32;20299;-57
2023/08/23 09:22:35;;;;;;;4.95;2.05;;;29.80;99.90;;;;;;7284251;32;20604;-57
2023/08/23 09:26:38;;;;;;;4.05;2.00;;;30.10;99.90;;;;;;7292801;32;20213;-58
2023/08/23 09:30:39;;;;;;;6.30;2.30;;;29.10;99.90;;;;;;7254280;32;20681;-58
2023/08/23 09:34:42;;;;;;;3.95;2.25;;;28.60;99.90;;;;;;7282073;32;20210;-58
2023/08/23 09:38:43;;;;;;;9.13;2.97;;;27.70;99.90;;;;;;7254126;32;20191;-58
2023/08/23 09:42:46;;;;;;;8.27;2.90;;;27.70;99.90;;;;;;7282038;32;20231;-57
2023/08/23 09:46:50;;;;;;;5.75;2.47;;;28.20;99.90;;;;;;7279713;32;20186;-57
2023/08/23 09:50:54;;;;;;;7.00;3.03;;;28.20;99.90;;;;;;7282262;32;20198;-57
2023/08/23 09:54:58;;;;;;;5.22;2.25;;;28.30;99.90;;;;;;7285757;32;20223;-57
2023/08/23 09:59:16;;;;;;;5.82;3.05;;;28.70;99.90;;;;;;7279025;32;20186;-57
2023/08/23 10:03:20;;;;;;;8.38;3.20;;;28.60;99.90;;;;;;7284523;32;20195;-58
2023/08/23 10:07:23;;;;;;;7.72;3.22;;;29.20;99.90;;;;;;7279864;32;21219;-58
2023/08/23 10:11:28;;;;;;;6.22;2.90;;;29.20;99.90;;;;;;7281912;32;20279;-57
2023/08/23 10:15:39;;;;;;;7.50;3.37;;;29.60;99.90;;;;;;7274417;32;20191;-57
2023/08/23 10:19:42;;;;;;;8.95;3.42;;;29.40;99.90;;;;;;7279553;32;20320;-57
2023/08/23 10:23:44;;;;;;;9.05;4.18;;;29.50;99.90;;;;;;7278107;32;20218;-58
2023/08/23 10:27:48;;;;;;;5.75;2.70;;;29.30;99.90;;;;;;7269344;32;20218;-57
2023/08/23 10:31:53;;;;;;;7.90;3.80;;;29.50;99.90;;;;;;7290504;32;20300;-57
2023/08/23 10:35:56;;;;;;;10.23;3.80;;;29.80;99.90;;;;;;7284313;32;20136;-57
2023/08/23 10:40:00;;;;;;;13.48;4.72;;;29.40;99.90;;;;;;7284374;32;20319;-56
2023/08/23 10:44:02;;;;;;;8.75;4.53;;;29.10;99.90;;;;;;7277292;32;20218;-57
2023/08/23 10:48:04;;;;;;;8.07;4.37;;;28.70;99.90;;;;;;7281926;32;20268;-57
2023/08/23 10:52:06;;;;;;;6.72;3.22;;;28.00;99.90;;;;;;7282671;32;20601;-57
2023/08/23 10:56:10;;;;;;;10.07;5.12;;;28.10;99.90;;;;;;7289726;32;20665;-57
2023/08/23 11:00:12;;;;;;;7.15;3.90;;;27.50;99.90;;;;;;7281664;32;20187;-57
2023/08/23 11:04:15;;;;;;;13.80;4.90;;;27.00;99.90;;;;;;7282582;32;20192;-57
2023/08/23 11:08:17;;;;;;;7.53;3.70;;;26.80;99.90;;;;;;7283560;32;20225;-54
2023/08/23 11:12:19;;;;;;;4.80;3.33;;;27.00;99.90;;;;;;7275926;32;20279;-57
2023/08/23 11:16:22;;;;;;;7.12;2.70;;;27.20;99.90;;;;;;7288430;32;20179;-58
2023/08/23 11:20:24;;;;;;;7.85;3.12;;;27.00;99.90;;;;;;7297657;32;20192;-57
2023/08/23 11:24:26;;;;;;;8.18;3.42;;;27.10;99.90;;;;;;7293411;32;20217;-57
2023/08/23 11:28:29;;;;;;;6.55;3.65;;;26.90;99.90;;;;;;7284337;32;20108;-56
2023/08/23 11:32:31;;;;;;;7.07;2.58;;;26.90;99.90;;;;;;7297517;32;20164;-57
2023/08/23 11:36:34;;;;;;;10.57;3.65;;;27.20;99.90;;;;;;7303158;32;20221;-56
2023/08/23 11:40:36;;;;;;;7.55;3.40;;;27.10;99.90;;;;;;7289182;32;20149;-57
2023/08/23 11:44:40;;;;;;;6.70;3.12;;;27.10;99.90;;;;;;7291682;32;20138;-57
2023/08/23 11:48:41;;;;;;;6.60;2.80;;;27.60;99.90;;;;;;7298597;32;20112;-58
2023/08/23 11:52:43;;;;;;;10.95;3.70;;;27.70;99.90;;;;;;7304734;32;20146;-58
2023/08/23 11:56:45;;;;;;;4.50;2.22;;;27.10;99.90;;;;;;7274847;32;20171;-56
2023/08/23 12:00:48;;;;;;;4.53;2.22;;;27.00;99.90;;;;;;7287770;32;20231;-56
2023/08/23 12:04:50;;;;;;;10.20;2.53;;;26.90;99.90;;;;;;7286972;32;20111;-56
2023/08/23 12:08:53;;;;;;;5.75;2.10;;;26.90;99.90;;;;;;7280034;32;20530;-57
2023/08/23 12:12:55;;;;;;;8.00;2.00;;;27.10;99.90;;;;;;7287621;32;20643;-56
2023/08/23 12:16:57;;;;;;;3.90;2.12;;;27.10;99.90;;;;;;7286678;32;20545;-56
2023/08/23 12:20:58;;;;;;;3.45;1.50;;;27.00;99.90;;;;;;7291085;32;20259;-56
2023/08/23 12:25:00;;;;;;;3.58;1.67;;;27.00;99.90;;;;;;7297382;32;20131;-56
2023/08/23 12:29:02;;;;;;;5.78;2.00;;;26.80;99.90;;;;;;7299508;32;20107;-56
2023/08/23 12:33:04;;;;;;;4.40;1.90;;;26.90;99.90;;;;;;7295464;32;20219;-56
2023/08/23 12:37:06;;;;;;;7.18;2.28;;;27.00;99.90;;;;;;7292304;32;20238;-56
2023/08/23 12:41:08;;;;;;;6.53;2.55;;;27.20;99.90;;;;;;7296227;32;20138;-56
2023/08/23 12:45:10;;;;;;;9.15;2.15;;;27.00;99.90;;;;;;7294613;32;20226;-56
2023/08/23 12:49:14;;;;;;;4.60;1.67;;;27.20;99.90;;;;;;7296551;32;20252;-57
2023/08/23 12:53:16;;;;;;;5.35;2.00;;;27.20;99.90;;;;;;7294271;32;20199;-57
2023/08/23 12:57:18;;;;;;;5.00;1.98;;;27.50;99.90;;;;;;7298515;32;20140;-57
2023/08/23 13:01:20;;;;;;;10.52;2.00;;;27.60;99.90;;;;;;7287775;32;20108;-56
2023/08/23 13:05:22;;;;;;;4.03;2.12;;;27.90;99.90;;;;;;7292154;32;20148;-56
2023/08/23 13:09:24;;;;;;;4.97;2.25;;;28.20;99.90;;;;;;7263174;32;20310;-56
2023/08/23 13:13:27;;;;;;;4.85;2.50;;;28.10;99.90;;;;;;7284414;32;20117;-56
2023/08/23 13:17:28;;;;;;;6.68;2.33;;;28.00;99.90;;;;;;7293842;32;20119;-56
2023/08/23 13:21:31;;;;;;;5.12;1.98;;;27.70;99.90;;;;;;7295768;32;20547;-56
2023/08/23 13:25:33;;;;;;;3.95;2.10;;;27.80;99.90;;;;;;7291060;32;20185;-56
2023/08/23 13:29:34;;;;;;;4.85;1.60;;;27.70;99.90;;;;;;7264621;32;20442;-56
2023/08/23 13:33:36;;;;;;;6.22;2.20;;;27.70;99.90;;;;;;7294793;32;20209;-56
2023/08/23 13:37:38;;;;;;;4.25;1.60;;;27.50;99.90;;;;;;7290162;32;20117;-56
2023/08/23 13:41:40;;;;;;;3.95;1.50;;;27.70;99.90;;;;;;7298454;32;20575;-56
2023/08/23 13:45:44;;;;;;;5.28;1.70;;;27.70;99.60;;;;;;7262949;32;20198;-56
2023/08/23 13:49:46;;;;;;;5.40;1.50;;;27.70;99.90;;;;;;7292551;32;20510;-56
2023/08/23 13:53:48;;;;;;;5.70;2.12;;;27.70;99.90;;;;;;7289585;32;20629;-58
2023/08/23 13:57:50;;;;;;;6.20;1.98;;;27.70;99.10;;;;;;7284394;32;20273;-56
2023/08/23 14:01:52;;;;;;;2.60;1.65;;;27.90;99.40;;;;;;7288372;32;20161;-56
2023/08/23 14:06:11;;;;;;;5.30;1.45;;;28.10;99.20;;;;;;7291369;32;20548;-56
2023/08/23 14:10:13;;;;;;;3.35;1.60;;;28.00;98.40;;;;;;7288955;32;20215;-56
2023/08/23 14:14:15;;;;;;;3.85;1.65;;;28.10;97.60;;;;;;7296371;32;20820;-56
2023/08/23 14:18:17;;;;;;;3.67;1.30;;;28.30;95.90;;;;;;7296096;32;20639;-56
2023/08/23 14:22:18;;;;;;;3.65;1.70;;;28.50;96.50;;;;;;7262926;32;20211;-56
2023/08/23 14:26:20;;;;;;;4.15;1.52;;;28.50;96.50;;;;;;7296205;32;20243;-53
2023/08/23 14:30:22;;;;;;;2.70;1.33;;;28.10;96.60;;;;;;7294257;32;20119;-54
2023/08/23 14:34:24;;;;;;;5.30;1.77;;;28.30;96.30;;;;;;7300710;32;20162;-55
2023/08/23 14:38:26;;;;;;;4.35;1.62;;;28.50;97.40;;;;;;7296588;32;20178;-55
2023/08/23 14:42:27;;;;;;;4.97;1.52;;;28.30;97.60;;;;;;7298609;32;20542;-54
2023/08/23 14:46:29;;;;;;;3.25;1.30;;;28.40;96.60;;;;;;7298708;32;20100;-55
2023/08/23 14:50:34;;;;;;;4.37;1.35;;;28.60;98.30;;;;;;7294049;32;20143;-54
2023/08/23 14:54:36;;;;;;;5.37;1.42;;;28.40;97.30;;;;;;7230818;32;20138;-55
2023/08/23 14:58:38;;;;;;;3.05;1.30;;;28.30;96.30;;;;;;7269174;32;20233;-54
2023/08/23 15:02:41;;;;;;;3.00;1.33;;;28.20;95.60;;;;;;7270402;32;20288;-54
2023/08/23 15:06:42;;;;;;;4.95;1.73;;;28.20;97.10;;;;;;7267290;32;20120;-57
2023/08/23 15:10:44;;;;;;;3.90;1.67;;;28.00;95.50;;;;;;7280593;32;20161;-57
2023/08/23 15:14:46;;;;;;;4.55;1.40;;;27.60;95.10;;;;;;7291343;32;20174;-54
2023/08/23 15:18:48;;;;;;;3.00;1.52;;;27.30;95.40;;;;;;7292179;32;20123;-54
2023/08/23 15:22:49;;;;;;;2.47;1.35;;;27.00;94.50;;;;;;7286200;32;20167;-54
2023/08/23 15:26:51;;;;;;;6.20;1.42;;;26.80;96.30;;;;;;7289982;32;20153;-53
2023/08/23 15:30:53;;;;;;;6.40;1.50;;;26.50;94.50;;;;;;7298390;32;20572;-54
2023/08/23 15:34:54;;;;;;;5.80;2.00;;;26.50;94.80;;;;;;7289656;32;20175;-56
2023/08/23 15:38:56;;;;;;;2.25;1.40;;;26.30;93.80;;;;;;7296634;32;20099;-57
2023/08/23 15:42:58;;;;;;;3.17;1.45;;;26.10;94.70;;;;;;7294741;32;20458;-57
2023/08/23 15:47:00;;;;;;;2.70;1.55;;;26.10;93.20;;;;;;7298664;32;20122;-56
2023/08/23 15:51:04;;;;;;;3.60;1.87;;;26.00;93.60;;;;;;7295347;32;20200;-57
2023/08/23 15:55:07;;;;;;;3.92;1.58;;;26.10;93.30;;;;;;7293515;32;20096;-58
2023/08/23 15:59:09;;;;;;;3.92;1.75;;;26.20;92.60;;;;;;7294063;32;20130;-56
2023/08/23 16:03:13;;;;;;;3.65;1.50;;;25.90;92.60;;;;;;7295718;32;20142;-57
2023/08/23 16:07:15;;;;;;;3.78;1.42;;;26.00;91.30;;;;;;7291188;32;20203;-56
2023/08/23 16:11:16;;;;;;;4.00;1.83;;;25.90;92.00;;;;;;7293059;32;20148;-56
2023/08/23 16:15:18;;;;;;;4.68;1.75;;;25.70;91.50;;;;;;7289010;32;20114;-57
2023/08/23 16:19:20;;;;;;;6.05;1.90;;;25.80;91.80;;;;;;7286985;32;20319;-56
2023/08/23 16:23:22;;;;;;;2.53;1.60;;;25.80;90.30;;;;;;7291419;32;20174;-56
2023/08/23 16:27:24;;;;;;;4.65;1.92;;;25.80;91.50;;;;;;7277863;32;20501;-56
2023/08/23 16:31:26;;;;;;;3.95;1.75;;;25.70;91.40;;;;;;7288314;32;20223;-56
2023/08/23 16:35:27;;;;;;;4.37;1.65;;;25.70;93.20;;;;;;7292257;32;20298;-55
2023/08/23 16:39:29;;;;;;;3.47;1.33;;;25.80;94.60;;;;;;7288971;32;20118;-55
2023/08/23 16:43:32;;;;;;;3.72;1.48;;;25.70;91.60;;;;;;7289572;32;20297;-55
2023/08/23 16:47:33;;;;;;;5.20;1.60;;;25.50;91.60;;;;;;7289622;32;20183;-57
2023/08/23 16:51:35;;;;;;;4.75;1.50;;;25.50;93.80;;;;;;7290406;32;20293;-56
2023/08/23 16:55:38;;;;;;;3.67;1.30;;;25.50;94.00;;;;;;7294787;32;20139;-57
2023/08/23 16:59:41;;;;;;;2.47;1.42;;;25.30;95.00;;;;;;7291776;32;20131;-57
2023/08/23 17:03:42;;;;;;;3.92;1.48;;;25.20;95.80;;;;;;7294452;32;20525;-56
2023/08/23 17:07:44;;;;;;;4.70;1.52;;;25.00;98.20;;;;;;7234020;32;20092;-56
2023/08/23 17:11:46;;;;;;;4.18;1.42;;;24.80;99.90;;;;;;7296187;32;20107;-58
2023/08/23 17:15:48;;;;;;;3.87;1.40;;;24.70;99.90;;;;;;7289496;32;20482;-57
2023/08/23 17:19:50;;;;;;;4.55;1.30;;;24.70;99.90;;;;;;7289530;32;20103;-57
2023/08/23 17:23:52;;;;;;;3.78;1.50;;;24.50;99.90;;;;;;7270274;32;20160;-57
2023/08/23 17:28:00;;;;;;;4.62;1.80;;;24.50;99.90;;;;;;7291425;32;20127;-58
2023/08/23 17:32:02;;;;;;;3.17;1.52;;;24.30;99.90;;;;;;7285523;32;20235;-57
2023/08/23 17:36:04;;;;;;;3.28;1.55;;;24.10;99.90;;;;;;7290924;32;20302;-58
2023/08/23 17:40:06;;;;;;;3.67;1.55;;;24.10;99.90;;;;;;7276525;32;20690;-58
2023/08/23 17:44:08;;;;;;;6.10;1.55;;;23.90;99.90;;;;;;7291112;32;20219;-57
2023/08/23 17:48:10;;;;;;;3.62;1.65;;;23.70;99.90;;;;;;7291568;32;20176;-56
2023/08/23 17:52:11;;;;;;;3.47;1.90;;;23.50;99.90;;;;;;7300468;32;20198;-57
2023/08/23 17:56:13;;;;;;;3.08;1.77;;;23.20;99.90;;;;;;7297218;32;20119;-59
2023/08/23 18:00:15;;;;;;;5.03;1.67;;;23.00;99.90;;;;;;7292863;32;20291;-59
2023/08/23 18:04:17;;;;;;;4.60;1.65;;;22.80;99.90;;;;;;7265876;32;20605;-58
2023/08/23 18:08:19;;;;;;;5.75;1.70;;;22.80;99.90;;;;;;7292275;32;20214;-60
2023/08/23 18:12:22;;;;;;;4.37;1.85;;;22.50;99.90;;;;;;7281494;32;20128;-58
2023/08/23 18:16:23;;;;;;;7.03;2.35;;;22.20;99.90;;;;;;7286609;32;20194;-59
2023/08/23 18:20:25;;;;;;;5.72;1.90;;;22.00;99.90;;;;;;7295040;32;20218;-59
2023/08/23 18:24:27;;;;;;;5.87;2.37;;;21.80;99.90;;;;;;7287922;32;20214;-58
2023/08/23 18:28:29;;;;;;;5.72;2.00;;;21.60;99.90;;;;;;7294772;32;20346;-59
2023/08/23 18:32:30;;;;;;;7.72;1.90;;;21.20;99.90;;;;;;7291557;32;20351;-58
2023/08/23 18:36:32;;;;;;;4.70;2.53;;;21.10;99.90;;;;;;7294160;32;21142;-58
2023/08/23 18:40:35;;;;;;;9.23;2.50;;;20.70;99.90;;;;;;7291296;32;20134;-58
2023/08/23 18:44:36;;;;;;;10.68;2.58;;;20.50;99.90;;;;;;7283265;32;20230;-59
2023/08/23 18:48:38;;;;;;;4.35;2.28;;;20.20;99.90;;;;;;7292450;32;20119;-60
2023/08/23 18:52:40;;;;;;;4.22;2.28;;;20.00;99.90;;;;;;7291032;32;20237;-59
2023/08/23 18:56:42;;;;;;;6.60;2.40;;;19.70;99.90;;;;;;7293301;32;20363;-59
2023/08/23 19:00:45;;;;;;;7.18;2.78;;;19.50;99.90;;;;;;7292767;32;20104;-58
2023/08/23 19:04:47;;;;;;;5.68;2.75;;;19.30;99.90;;;;;;7291986;32;20104;-58
2023/08/23 19:08:49;;;;;;;6.82;2.58;;;19.40;99.90;;;;;;7270695;32;20297;-58
2023/08/23 19:12:51;;;;;;;9.05;2.42;;;19.10;99.90;;;;;;7296418;32;20128;-59
2023/08/23 19:16:53;;;;;;;17.08;13.05;;;19.00;99.90;;;;;;7296867;32;20173;-57
2023/08/23 19:20:54;;;;;;;9.30;3.20;;;18.80;99.90;;;;;;7296713;32;20104;-57
2023/08/23 19:24:57;;;;;;;6.05;2.75;;;18.80;99.90;;;;;;7267836;32;20745;-56
2023/08/23 19:28:59;;;;;;;7.40;3.20;;;18.60;99.90;;;;;;7241242;32;20568;-56
2023/08/23 19:33:01;;;;;;;5.55;3.03;;;18.40;99.90;;;;;;7293633;32;20128;-55
2023/08/23 19:37:03;;;;;;;7.80;3.05;;;18.30;99.90;;;;;;7294434;32;20297;-55
2023/08/23 19:41:08;;;;;;;9.55;2.92;;;18.20;99.90;;;;;;7298882;32;20152;-55
2023/08/23 19:45:09;;;;;;;6.40;3.30;;;18.10;99.90;;;;;;7294820;32;20179;-55
2023/08/23 19:49:14;;;;;;;7.82;3.22;;;18.00;99.90;;;;;;7294606;32;20096;-54
2023/08/23 19:53:17;;;;;;;10.68;2.97;;;17.90;99.90;;;;;;7297403;32;20447;-54
2023/08/23 19:57:29;;;;;;;8.18;3.33;;;17.80;99.90;;;;;;7263211;32;20183;-55
2023/08/23 20:01:31;;;;;;;8.70;3.70;;;17.70;99.90;;;;;;7291381;32;20256;-56
2023/08/23 20:05:34;;;;;;;10.85;4.50;;;17.60;99.90;;;;;;7293638;32;20211;-55
2023/08/23 20:09:36;;;;;;;5.80;3.20;;;17.40;99.90;;;;;;7292177;32;20183;-56
2023/08/23 20:13:38;;;;;;;6.85;3.60;;;17.30;99.90;;;;;;7295477;32;20220;-57
2023/08/23 20:17:39;;;;;;;6.62;3.45;;;17.30;99.90;;;;;;7290256;32;20130;-55
2023/08/23 20:21:41;;;;;;;5.93;3.55;;;17.20;99.90;;;;;;7289666;32;20171;-56
2023/08/23 20:25:43;;;;;;;16.27;9.55;;;17.10;99.90;;;;;;7286158;32;20231;-56
2023/08/23 20:29:50;;;;;;;9.18;4.15;;;17.10;99.90;;;;;;7289649;32;20099;-56
2023/08/23 20:33:52;;;;;;;7.93;2.97;;;17.00;99.90;;;;;;7292500;32;20230;-55
2023/08/23 20:37:53;;;;;;;5.40;2.92;;;17.00;99.90;;;;;;7294763;32;20209;-55
2023/08/23 20:41:55;;;;;;;7.15;2.75;;;16.90;99.90;;;;;;7285887;32;20270;-56
2023/08/23 20:46:03;;;;;;;5.15;2.72;;;16.90;99.90;;;;;;7282351;32;20219;-56
2023/08/23 20:50:06;;;;;;;5.47;2.70;;;16.70;99.90;;;;;;7276955;32;20190;-55
2023/08/23 20:54:08;;;;;;;4.28;2.65;;;16.60;99.90;;;;;;7290667;32;20107;-56
2023/08/23 20:58:11;;;;;;;5.82;3.05;;;16.60;99.90;;;;;;7288710;32;20116;-55
2023/08/23 21:02:13;;;;;;;5.05;2.70;;;16.60;99.90;;;;;;7290319;32;20270;-55